Terminal Aerodrome Forecast
Issued by NWS

Home | Current Version | Previous Version | Text Only | Print | Product List | Glossary On
Versions: 1 2 3 4 5 6 7 8 9 10 11 12 13 14 15 16 17 18 19 20 21 22 23 24 25 26 27 28 29
643
FTUS43 KLOT 271725
TAFORD
TAF
KORD 271725Z 2718/2824 21006KT P6SM SCT050 SCT250
     FM272100 10006KT P6SM FEW050 SCT250
     FM280200 06004KT P6SM BKN200
     FM281500 06007KT P6SM VCSH SCT030 BKN080 PROB30 2817/2821 4SM
      -TSRA BKN030CB
     FM282100 03011KT P6SM SCT030 BKN080=

USA.gov is the U.S. government's official web portal to all federal, state and local government web resources and services.